Time;durP1;ratioP1;P1;durP2;ratioP2;P2;SDS_P1;SDS_P2;PMS_P1;PMS_P2;Temp;Humidity;BMP_temperature;BMP_pressure;BME280_temperature;BME280_humidity;BME280_pressure;Samples;Min_cycle;Max_cycle;Signal;HPM_P1;HPM_P2
2022/09/06 00:02:18;;;;;;;13.77;5.28;;;;;;;22.50;48.90;101088.72;5073388;28;20044;-57
2022/09/06 00:04:44;;;;;;;15.93;5.30;;;;;;;22.42;48.79;101089.03;5080108;28;20060;-57
2022/09/06 00:07:11;;;;;;;13.48;5.13;;;;;;;22.38;47.93;101099.47;5107616;28;20051;-57
2022/09/06 00:09:38;;;;;;;12.75;5.05;;;;;;;22.34;48.74;101102.81;5113702;28;20043;-57
2022/09/06 00:12:05;;;;;;;12.73;4.97;;;;;;;22.35;48.45;101116.13;5114083;28;20104;-57
2022/09/06 00:14:31;;;;;;;13.20;5.35;;;;;;;22.17;50.54;101165.50;5110660;28;20105;-57
2022/09/06 00:16:59;;;;;;;14.52;5.70;;;;;;;22.10;50.48;101190.94;5113933;28;20489;-57
2022/09/06 00:19:26;;;;;;;14.18;5.63;;;;;;;22.06;50.23;101163.53;5113643;28;20044;-57
2022/09/06 00:21:53;;;;;;;12.45;5.20;;;;;;;22.05;47.80;101164.59;5113862;28;20374;-57
2022/09/06 00:24:19;;;;;;;19.50;5.28;;;;;;;22.20;47.53;101166.97;5113664;28;20404;-57
2022/09/06 00:26:46;;;;;;;22.70;5.45;;;;;;;22.16;47.12;101173.88;5114105;28;20061;-57
2022/09/06 00:29:13;;;;;;;15.23;5.05;;;;;;;22.14;46.96;101184.03;5110362;28;20490;-57
2022/09/06 00:31:39;;;;;;;23.08;5.97;;;;;;;22.13;47.33;101201.31;5113105;28;20203;-57
2022/09/06 00:34:06;;;;;;;14.23;5.53;;;;;;;22.22;46.65;101198.09;5112754;28;20044;-57
2022/09/06 00:36:33;;;;;;;18.67;5.63;;;;;;;22.15;47.25;101204.63;5113746;28;20040;-57
2022/09/06 00:39:00;;;;;;;19.52;5.05;;;;;;;22.12;48.04;101203.19;5113351;28;20400;-57
2022/09/06 00:41:27;;;;;;;25.33;5.00;;;;;;;22.16;48.14;101206.28;5113739;28;20100;-57
2022/09/06 00:43:54;;;;;;;21.00;5.25;;;;;;;22.01;48.69;101210.13;5110479;28;20080;-57
2022/09/06 00:46:25;;;;;;;34.90;5.03;;;;;;;21.92;49.87;101210.59;5113278;28;20046;-57
2022/09/06 00:49:02;;;;;;;15.45;4.82;;;;;;;21.86;49.76;101217.69;5113747;28;20397;-57
2022/09/06 00:51:29;;;;;;;16.58;4.80;;;;;;;21.91;50.06;101222.44;5113544;28;20519;-57
2022/09/06 00:53:57;;;;;;;16.23;5.10;;;;;;;22.00;50.23;101235.47;5113526;28;20050;-57
2022/09/06 00:56:25;;;;;;;20.42;4.65;;;;;;;22.06;50.29;101241.88;5113625;28;20485;-57
2022/09/06 00:58:52;;;;;;;20.30;5.63;;;;;;;22.08;50.78;101249.75;5105409;28;20043;-57
2022/09/06 01:01:19;;;;;;;16.92;5.18;;;;;;;21.99;51.76;101241.09;5112908;28;20052;-57
2022/09/06 01:03:45;;;;;;;19.10;4.97;;;;;;;21.80;52.83;101242.88;5113413;28;20039;-57
2022/09/06 01:06:25;;;;;;;20.77;4.80;;;;;;;21.67;54.57;101235.69;5095171;28;20046;-57
2022/09/06 01:09:18;;;;;;;16.73;4.72;;;;;;;21.54;55.31;101238.41;5093189;28;20048;-57
2022/09/06 01:12:25;;;;;;;21.15;5.72;;;;;;;21.34;59.33;101233.06;5092841;28;20052;-57
2022/09/06 01:15:19;;;;;;;13.60;4.82;;;;;;;21.26;60.70;101226.06;5089449;28;20048;-57
2022/09/06 01:18:16;;;;;;;20.92;5.50;;;;;;;21.08;63.65;101219.50;5092849;28;20158;-57
2022/09/06 01:21:16;;;;;;;17.83;5.57;;;;;;;20.83;67.95;101226.56;5092809;28;20123;-57
2022/09/06 01:24:24;;;;;;;17.83;5.72;;;;;;;20.63;69.63;101213.13;5092752;28;20129;-57
2022/09/06 01:27:30;;;;;;;17.42;5.45;;;;;;;20.15;71.66;101203.38;5092460;28;20048;-57
2022/09/06 01:30:07;;;;;;;19.33;5.90;;;;;;;19.87;73.87;101199.00;5089210;28;20123;-57
2022/09/06 01:32:48;;;;;;;16.70;6.05;;;;;;;19.65;75.92;101201.00;5093849;28;20494;-58
2022/09/06 01:35:39;;;;;;;12.48;6.10;;;;;;;19.69;75.94;101196.03;5096027;28;20044;-57
2022/09/06 01:38:07;;;;;;;16.88;6.40;;;;;;;19.77;77.25;101192.34;5080754;28;20521;-58
2022/09/06 01:40:35;;;;;;;19.02;6.38;;;;;;;19.87;76.52;101182.84;5075743;28;20063;-57
2022/09/06 01:43:04;;;;;;;14.05;6.20;;;;;;;19.84;77.64;101183.25;5091186;28;20045;-57
2022/09/06 01:45:47;;;;;;;19.52;6.00;;;;;;;19.90;75.57;101166.28;5072450;28;20402;-57
2022/09/06 01:48:54;;;;;;;15.38;5.95;;;;;;;19.62;76.03;101163.72;5076231;28;20479;-57
2022/09/06 01:54:34;;;;;;;19.55;5.65;;;;;;;19.75;75.10;101192.56;5111168;27;20387;-56
2022/09/06 01:57:29;;;;;;;19.20;6.60;;;;;;;19.86;74.09;101208.09;5111172;28;20043;-57
2022/09/06 02:00:08;;;;;;;15.30;6.03;;;;;;;19.71;77.83;101212.81;5104290;28;20059;-57
2022/09/06 02:03:21;;;;;;;15.55;6.07;;;;;;;19.77;79.00;101205.81;5110674;28;20101;-56
2022/09/06 02:06:09;;;;;;;14.80;6.07;;;;;;;19.80;78.32;101206.22;5111020;28;20400;-56
2022/09/06 02:08:43;;;;;;;19.38;6.57;;;;;;;19.82;78.43;101203.34;5110707;28;20054;-56
2022/09/06 02:11:13;;;;;;;18.45;6.60;;;;;;;19.78;80.22;101200.22;5110821;28;20047;-56
2022/09/06 02:13:51;;;;;;;21.65;6.43;;;;;;;19.77;82.23;101209.31;5110825;28;20039;-56
2022/09/06 02:16:22;;;;;;;16.75;6.20;;;;;;;19.73;80.83;101200.81;5107605;28;20519;-56
2022/09/06 02:19:02;;;;;;;21.90;6.57;;;;;;;19.69;81.89;101191.47;5110875;28;20055;-56
2022/09/06 02:21:33;;;;;;;21.45;6.82;;;;;;;19.64;81.19;101198.50;5110725;28;20047;-56
2022/09/06 02:24:03;;;;;;;;;;;;;;;19.66;82.02;101193.75;5110913;28;20401;-56
2022/09/06 02:26:35;;;;;;;18.10;6.60;;;;;;;19.62;80.86;101192.50;5110787;28;19920;-55
2022/09/06 02:29:03;;;;;;;18.38;7.15;;;;;;;19.45;81.72;101178.59;5110508;28;20131;-55
2022/09/06 02:31:36;;;;;;;17.35;6.85;;;;;;;19.58;82.50;101181.31;5106970;28;20097;-56
2022/09/06 02:34:03;;;;;;;20.13;7.05;;;;;;;19.63;82.80;101178.00;5108469;28;20127;-56
2022/09/06 02:36:31;;;;;;;14.63;6.90;;;;;;;19.53;82.11;101164.94;5110312;28;20067;-56
2022/09/06 02:39:00;;;;;;;15.25;6.30;;;;;;;19.54;82.21;101162.06;5110814;28;20052;-55
2022/09/06 02:41:28;;;;;;;16.23;6.43;;;;;;;19.58;82.36;101151.72;5110182;28;20097;-56
2022/09/06 02:43:54;;;;;;;16.38;6.68;;;;;;;19.62;82.47;101162.91;5110119;28;20036;-56
2022/09/06 02:46:23;;;;;;;18.58;7.68;;;;;;;19.65;84.02;101157.13;5107095;28;20079;-56
2022/09/06 02:48:50;;;;;;;20.23;7.25;;;;;;;19.70;84.47;101160.00;5110102;28;20046;-56
2022/09/06 02:51:17;;;;;;;22.20;7.05;;;;;;;19.63;84.11;101160.00;5109487;28;20075;-56
2022/09/06 02:53:44;;;;;;;18.90;7.20;;;;;;;19.60;84.14;101152.34;5109740;28;20050;-56
2022/09/06 02:56:11;;;;;;;17.67;6.75;;;;;;;19.61;84.42;101151.31;5110059;28;20066;-56
2022/09/06 02:58:38;;;;;;;18.45;7.18;;;;;;;19.62;83.50;101144.06;5109978;28;20044;-56
2022/09/06 03:01:05;;;;;;;17.42;6.85;;;;;;;19.48;83.72;101140.50;5105296;28;20047;-56
2022/09/06 03:03:32;;;;;;;19.30;6.80;;;;;;;19.59;82.45;101131.00;5107553;28;20130;-56
2022/09/06 03:05:59;;;;;;;17.83;6.72;;;;;;;19.64;81.89;101123.97;5096154;28;20067;-56
2022/09/06 03:08:28;;;;;;;18.60;6.78;;;;;;;19.66;81.45;101113.81;5096237;28;20055;-57
2022/09/06 03:10:55;;;;;;;17.70;6.47;;;;;;;19.66;80.70;101108.44;5096099;28;20550;-56
2022/09/06 03:13:23;;;;;;;21.85;7.05;;;;;;;19.68;80.97;101103.72;5096062;28;20036;-56
2022/09/06 03:15:51;;;;;;;19.23;7.65;;;;;;;19.71;82.32;101102.47;5095945;28;20044;-56
2022/09/06 03:18:19;;;;;;;20.50;6.82;;;;;;;19.73;82.76;101100.41;5092534;28;20063;-56
2022/09/06 03:20:48;;;;;;;15.38;6.68;;;;;;;19.77;81.70;101112.44;5095748;28;20052;-56
2022/09/06 03:23:17;;;;;;;23.80;7.15;;;;;;;19.81;82.09;101111.00;5095769;28;20048;-56
2022/09/06 03:25:44;;;;;;;19.55;7.93;;;;;;;19.71;82.86;101114.03;5095688;28;20044;-56
2022/09/06 03:28:11;;;;;;;17.40;6.63;;;;;;;19.76;83.27;101124.25;5095836;28;20055;-57
2022/09/06 03:30:39;;;;;;;19.55;7.03;;;;;;;19.77;83.23;101127.75;5094111;28;20048;-56
2022/09/06 03:33:06;;;;;;;18.45;7.60;;;;;;;19.70;82.45;101122.31;5092028;28;20043;-56
2022/09/06 03:35:33;;;;;;;19.02;8.13;;;;;;;19.66;82.65;101119.22;5095396;28;20040;-56
2022/09/06 03:37:59;;;;;;;19.92;7.22;;;;;;;19.69;82.08;101126.06;5087481;28;20052;-56
2022/09/06 03:40:26;;;;;;;18.75;7.18;;;;;;;19.70;82.52;101130.41;5075294;28;20498;-56
2022/09/06 03:42:53;;;;;;;19.02;7.22;;;;;;;19.59;82.09;101133.69;5075094;28;20037;-56
2022/09/06 03:45:20;;;;;;;19.10;7.82;;;;;;;19.61;81.44;101124.41;5075258;28;20052;-56
2022/09/06 03:47:46;;;;;;;19.67;7.60;;;;;;;19.66;82.84;101131.84;5071779;28;20048;-56
2022/09/06 03:50:13;;;;;;;14.93;7.75;;;;;;;19.60;82.72;101136.19;5075095;28;20044;-56
2022/09/06 03:52:40;;;;;;;18.23;8.02;;;;;;;19.58;81.67;101132.06;5074780;28;20060;-56
2022/09/06 03:55:08;;;;;;;20.60;8.85;;;;;;;19.47;81.32;101136.16;5074867;28;20094;-56
2022/09/06 03:57:34;;;;;;;19.95;8.15;;;;;;;19.56;80.73;101129.56;5074793;28;20044;-56
2022/09/06 04:00:02;;;;;;;24.20;8.43;;;;;;;19.51;81.04;101132.84;5074660;28;20150;-56
2022/09/06 04:02:39;;;;;;;24.10;8.73;;;;;;;19.53;82.22;101135.34;5068192;28;20497;-57
2022/09/06 04:05:06;;;;;;;23.00;7.82;;;;;;;19.51;81.99;101126.66;5083570;28;20237;-56
2022/09/06 04:07:33;;;;;;;17.70;7.60;;;;;;;19.37;81.55;101125.78;5074939;28;20056;-56
2022/09/06 04:10:00;;;;;;;21.27;8.60;;;;;;;19.34;82.44;101129.72;5074096;28;20046;-56
2022/09/06 04:12:27;;;;;;;17.77;8.27;;;;;;;19.29;81.68;101128.66;5074407;28;20040;-57
2022/09/06 04:14:54;;;;;;;23.15;9.05;;;;;;;19.09;81.60;101124.03;5074513;28;20525;-56
2022/09/06 04:17:20;;;;;;;19.85;8.82;;;;;;;19.24;82.03;101128.44;5070329;28;20049;-56
2022/09/06 04:19:47;;;;;;;19.73;9.10;;;;;;;19.14;81.50;101131.53;5074411;28;20055;-56
2022/09/06 04:22:14;;;;;;;19.73;9.43;;;;;;;19.21;82.18;101120.75;5074200;28;20406;-56
2022/09/06 04:24:41;;;;;;;20.17;9.65;;;;;;;19.22;82.29;101128.63;5074472;28;20500;-56
2022/09/06 04:27:07;;;;;;;22.73;9.73;;;;;;;19.18;82.72;101133.59;5074312;28;20040;-56
2022/09/06 04:29:34;;;;;;;20.17;10.77;;;;;;;19.00;83.11;101119.88;5074125;28;20493;-56
2022/09/06 04:32:01;;;;;;;22.15;11.20;;;;;;;18.89;82.31;101123.13;5073517;28;20094;-56
2022/09/06 04:34:28;;;;;;;23.02;11.07;;;;;;;19.07;82.40;101125.28;5070741;28;20053;-56
2022/09/06 04:36:55;;;;;;;22.70;11.20;;;;;;;19.01;82.52;101132.28;5074031;28;20048;-56
2022/09/06 04:39:22;;;;;;;28.45;11.38;;;;;;;19.05;82.45;101119.28;5074014;28;20512;-56
2022/09/06 04:41:49;;;;;;;29.77;12.30;;;;;;;18.98;83.02;101130.81;5073777;28;20045;-56
2022/09/06 04:44:15;;;;;;;28.35;12.20;;;;;;;18.95;83.36;101131.22;5074059;28;20116;-56
2022/09/06 04:46:42;;;;;;;33.28;12.60;;;;;;;18.90;83.33;101117.56;5074507;28;20477;-56
2022/09/06 04:49:09;;;;;;;22.40;12.25;;;;;;;18.88;83.12;101132.22;5070653;28;20127;-56
2022/09/06 04:51:38;;;;;;;29.90;12.70;;;;;;;18.82;83.89;101127.66;5073576;28;20068;-56
2022/09/06 04:54:05;;;;;;;23.83;12.80;;;;;;;18.71;84.04;101129.00;5073406;28;20128;-57
2022/09/06 04:56:32;;;;;;;32.08;13.30;;;;;;;18.66;84.58;101121.53;5072585;28;20063;-57
2022/09/06 04:58:59;;;;;;;31.30;13.27;;;;;;;18.78;84.38;101121.81;5072227;28;20048;-56
2022/09/06 05:01:25;;;;;;;26.48;12.93;;;;;;;18.72;84.16;101136.88;5073693;28;20068;-56
2022/09/06 05:03:52;;;;;;;28.73;13.07;;;;;;;18.73;84.29;101135.81;5066551;28;20050;-56
2022/09/06 05:06:23;;;;;;;25.80;13.15;;;;;;;18.72;84.03;101142.25;5092823;28;20584;-56
2022/09/06 05:08:50;;;;;;;29.15;13.23;;;;;;;18.61;83.92;101137.44;5092751;28;20105;-56
2022/09/06 05:11:17;;;;;;;28.60;12.75;;;;;;;18.61;84.32;101137.44;5093370;28;20044;-56
2022/09/06 05:13:45;;;;;;;27.85;12.65;;;;;;;18.50;84.25;101146.88;5093550;28;20458;-57
2022/09/06 05:16:12;;;;;;;25.45;13.65;;;;;;;18.54;84.50;101148.13;5092742;28;20095;-58
2022/09/06 05:18:38;;;;;;;27.63;12.52;;;;;;;18.53;84.48;101143.78;5090522;28;20044;-58
2022/09/06 05:21:06;;;;;;;23.05;12.75;;;;;;;18.57;84.62;101146.88;5093366;28;20036;-56
2022/09/06 05:23:33;;;;;;;26.30;12.48;;;;;;;18.60;84.23;101150.00;5093455;28;20048;-56
2022/09/06 05:26:00;;;;;;;22.17;12.52;;;;;;;18.56;84.49;101138.00;5093350;28;20040;-56
2022/09/06 05:28:26;;;;;;;23.38;12.68;;;;;;;18.67;84.33;101144.69;5093033;28;20109;-57
2022/09/06 05:31:04;;;;;;;34.28;13.30;;;;;;;18.64;84.23;101149.63;5091993;28;20051;-57
2022/09/06 05:33:31;;;;;;;31.48;13.10;;;;;;;18.70;84.45;101149.69;5089442;28;20044;-57
2022/09/06 05:35:57;;;;;;;27.90;13.27;;;;;;;18.77;83.19;101155.06;5093130;28;20547;-57
2022/09/06 05:38:24;;;;;;;30.08;12.70;;;;;;;18.79;83.40;101159.25;5089242;28;20120;-57
2022/09/06 05:40:53;;;;;;;24.85;12.65;;;;;;;18.85;83.05;101162.19;5072917;28;20041;-57
2022/09/06 05:43:20;;;;;;;25.50;12.55;;;;;;;18.81;82.90;101159.06;5072592;28;20558;-57
2022/09/06 05:45:47;;;;;;;24.33;12.65;;;;;;;18.84;83.47;101160.53;5072258;28;20041;-56
2022/09/06 05:48:13;;;;;;;26.48;12.38;;;;;;;18.80;83.31;101152.81;5069439;28;20466;-57
2022/09/06 05:50:40;;;;;;;25.90;11.88;;;;;;;18.80;83.74;101149.31;5070901;28;20052;-57
2022/09/06 05:53:07;;;;;;;25.17;12.23;;;;;;;18.77;82.86;101155.06;5072031;28;20086;-57
2022/09/06 05:55:33;;;;;;;23.58;11.57;;;;;;;18.74;83.53;101147.44;5071931;28;20044;-57
2022/09/06 05:58:00;;;;;;;33.55;12.48;;;;;;;18.82;83.49;101154.53;5072704;28;20074;-58
2022/09/06 06:00:27;;;;;;;24.50;11.95;;;;;;;18.89;83.62;101158.91;5072640;28;20051;-57
2022/09/06 06:02:54;;;;;;;33.90;11.80;;;;;;;18.81;83.36;101156.38;5072417;28;20380;-58
2022/09/06 06:05:20;;;;;;;30.25;11.73;;;;;;;18.89;83.48;101158.91;5076117;28;20543;-56
2022/09/06 06:07:47;;;;;;;25.52;11.25;;;;;;;18.93;83.36;101159.34;5093102;28;20048;-56
2022/09/06 06:10:14;;;;;;;25.10;11.35;;;;;;;18.96;83.09;101154.38;5092268;28;20126;-56
2022/09/06 06:12:41;;;;;;;22.23;11.27;;;;;;;19.05;82.44;101159.59;5092782;28;20098;-56
2022/09/06 06:15:08;;;;;;;26.85;11.43;;;;;;;19.10;82.21;101163.34;5093002;28;20055;-57
2022/09/06 06:17:35;;;;;;;22.45;11.25;;;;;;;19.08;82.48;101161.88;5092946;28;20044;-56
2022/09/06 06:20:02;;;;;;;25.35;11.55;;;;;;;19.11;83.08;101154.25;5089576;28;20493;-56
2022/09/06 06:22:28;;;;;;;22.20;11.43;;;;;;;19.20;82.46;101152.22;5074901;28;20089;-57
2022/09/06 06:24:55;;;;;;;22.60;11.30;;;;;;;19.24;82.38;101150.78;5092966;28;20046;-56
2022/09/06 06:27:22;;;;;;;20.38;10.88;;;;;;;19.23;81.07;101150.97;5092763;28;20439;-56
2022/09/06 06:29:49;;;;;;;20.85;10.57;;;;;;;19.22;81.80;101152.84;5092434;28;20432;-56
2022/09/06 06:32:16;;;;;;;24.15;11.10;;;;;;;19.22;81.51;101143.94;5092093;28;20056;-56
2022/09/06 06:34:42;;;;;;;22.90;10.32;;;;;;;19.13;81.35;101143.28;5089279;28;20482;-56
2022/09/06 06:37:09;;;;;;;22.88;10.70;;;;;;;19.27;81.35;101142.31;5092663;28;20044;-56
2022/09/06 06:39:37;;;;;;;19.10;10.48;;;;;;;19.35;80.23;101143.97;5093629;28;20401;-57
2022/09/06 06:42:04;;;;;;;20.25;10.98;;;;;;;19.34;80.52;101139.66;5096686;28;20055;-55
2022/09/06 06:44:40;;;;;;;19.70;10.40;;;;;;;19.51;79.47;101135.53;5096491;28;20040;-56
2022/09/06 06:47:07;;;;;;;24.98;10.63;;;;;;;19.50;79.69;101127.66;5092179;28;20038;-56
2022/09/06 06:49:34;;;;;;;21.17;9.93;;;;;;;19.49;80.12;101126.84;5083513;28;20463;-54
2022/09/06 06:52:00;;;;;;;21.33;9.73;;;;;;;19.52;79.05;101125.63;5087635;28;20056;-57
2022/09/06 06:54:28;;;;;;;19.65;9.85;;;;;;;19.52;78.96;101125.63;5107827;28;20086;-58
2022/09/06 06:56:55;;;;;;;19.77;9.27;;;;;;;19.50;78.19;101130.34;5090074;28;20039;-58
2022/09/06 06:59:22;;;;;;;26.60;10.07;;;;;;;19.67;77.92;101137.03;5088714;28;20047;-58
2022/09/06 07:01:49;;;;;;;26.08;10.50;;;;;;;19.71;77.21;101132.88;5092121;28;20094;-58
2022/09/06 07:04:16;;;;;;;20.98;9.63;;;;;;;19.77;77.46;101131.25;5054965;28;20971;-58
2022/09/06 07:06:49;;;;;;;16.38;8.65;;;;;;;19.88;75.79;101128.00;5088738;28;20047;-58
2022/09/06 07:09:35;;;;;;;21.95;8.98;;;;;;;19.83;75.80;101129.63;5084469;28;20042;-58
2022/09/06 07:12:22;;;;;;;17.27;9.40;;;;;;;19.80;75.58;101135.44;5096247;28;20043;-58
2022/09/06 07:14:49;;;;;;;17.73;9.00;;;;;;;19.88;76.04;101128.00;5098537;28;20515;-57
2022/09/06 07:17:15;;;;;;;23.20;9.60;;;;;;;19.97;75.57;101125.91;5097212;28;20044;-58
2022/09/06 07:19:42;;;;;;;17.70;8.65;;;;;;;20.03;74.95;101126.94;5098003;28;20469;-58
2022/09/06 07:22:29;;;;;;;18.90;8.50;;;;;;;20.12;74.65;101120.31;5096863;28;20047;-58
2022/09/06 07:24:55;;;;;;;19.73;9.27;;;;;;;20.21;74.42;101132.53;5097773;28;20375;-58
2022/09/06 07:27:22;;;;;;;18.23;9.23;;;;;;;20.25;74.14;101130.25;5106069;28;20074;-58
2022/09/06 07:30:10;;;;;;;21.42;9.65;;;;;;;20.27;73.73;101123.63;5080337;28;20037;-58
2022/09/06 07:32:36;;;;;;;24.85;9.50;;;;;;;20.38;73.38;101118.63;5109000;28;20051;-57
2022/09/06 07:35:04;;;;;;;22.33;8.57;;;;;;;20.35;73.04;101119.03;5099804;28;20039;-57
2022/09/06 07:37:30;;;;;;;18.95;9.50;;;;;;;20.42;73.35;101128.78;5101445;28;20360;-57
2022/09/06 07:39:57;;;;;;;20.80;8.38;;;;;;;20.75;71.55;101121.69;5085314;28;20136;-58
2022/09/06 07:42:24;;;;;;;19.58;7.90;;;;;;;20.83;70.48;101129.53;5103400;28;20040;-57
2022/09/06 07:44:50;;;;;;;14.73;7.18;;;;;;;20.82;69.90;101123.31;5105895;28;20036;-57
2022/09/06 07:47:17;;;;;;;16.58;7.60;;;;;;;20.97;69.08;101123.03;5092365;28;20064;-58
2022/09/06 07:50:04;;;;;;;19.77;6.53;;;;;;;20.96;69.06;101128.66;5082953;28;20032;-58
2022/09/06 07:52:51;;;;;;;13.43;6.45;;;;;;;21.09;67.59;101125.91;5093741;28;20044;-58
2022/09/06 07:55:33;;;;;;;11.70;6.13;;;;;;;21.04;67.67;101131.94;5095241;28;20443;-58
2022/09/06 07:57:59;;;;;;;12.30;6.18;;;;;;;21.14;67.26;101136.88;5091680;28;20089;-58
2022/09/06 08:00:26;;;;;;;17.48;6.47;;;;;;;21.27;66.37;101136.81;5105329;28;20036;-58
2022/09/06 08:02:53;;;;;;;16.00;5.80;;;;;;;21.37;66.35;101139.03;5107742;28;20044;-58
2022/09/06 08:05:20;;;;;;;12.23;5.88;;;;;;;21.41;65.67;101132.19;5089942;28;20036;-58
2022/09/06 08:08:06;;;;;;;16.75;5.70;;;;;;;21.58;65.24;101134.41;5084881;28;20068;-58
2022/09/06 08:10:53;;;;;;;16.90;5.35;;;;;;;21.73;64.97;101137.59;5093415;28;20101;-58
2022/09/06 08:13:20;;;;;;;18.75;5.10;;;;;;;21.81;64.50;101133.81;5096019;28;20051;-58
2022/09/06 08:15:47;;;;;;;14.27;5.43;;;;;;;21.96;63.44;101138.91;5087350;28;20468;-58
2022/09/06 08:18:13;;;;;;;20.52;7.32;;;;;;;22.07;63.08;101137.38;5088776;28;20144;-58
2022/09/06 08:20:40;;;;;;;15.57;5.22;;;;;;;22.19;62.56;101139.13;5095858;28;20123;-58
2022/09/06 08:23:10;;;;;;;14.75;5.43;;;;;;;22.33;62.65;101141.72;5079402;28;20080;-58
2022/09/06 08:25:36;;;;;;;13.40;4.82;;;;;;;22.53;61.27;101136.13;5092168;28;20098;-58
2022/09/06 08:28:03;;;;;;;17.38;5.70;;;;;;;22.64;59.46;101132.66;5088555;28;20045;-57
2022/09/06 08:30:30;;;;;;;11.65;4.53;;;;;;;22.84;59.05;101132.44;5086234;28;20501;-57
2022/09/06 08:32:56;;;;;;;10.63;4.07;;;;;;;22.95;58.23;101137.09;5092175;28;20040;-57
2022/09/06 08:35:23;;;;;;;13.27;4.35;;;;;;;23.21;57.17;101131.59;5093271;28;20040;-57
2022/09/06 08:37:50;;;;;;;8.90;3.65;;;;;;;23.28;56.64;101135.06;5089252;28;20119;-57
2022/09/06 08:40:20;;;;;;;12.82;4.50;;;;;;;23.27;57.03;101123.41;5092823;28;20058;-57
2022/09/06 08:42:47;;;;;;;10.18;3.47;;;;;;;23.29;55.71;101129.41;5093586;28;20040;-57
2022/09/06 08:45:18;;;;;;;10.00;3.70;;;;;;;23.49;55.28;101131.03;5094124;28;20040;-57
2022/09/06 08:47:44;;;;;;;8.47;3.70;;;;;;;23.62;55.38;101128.09;5093698;28;20101;-57
2022/09/06 08:50:11;;;;;;;11.30;3.58;;;;;;;23.75;55.03;101124.38;5088818;28;20320;-57
2022/09/06 08:53:09;;;;;;;11.05;3.58;;;;;;;23.84;54.28;101123.00;5069946;28;20052;-58
2022/09/06 08:55:53;;;;;;;11.05;3.30;;;;;;;24.04;53.07;101117.25;5072037;28;20045;-58
2022/09/06 09:01:15;;;;;;;7.30;2.95;;;;;;;24.39;51.64;101121.03;5090372;28;20733;-58
2022/09/06 09:03:43;;;;;;;10.57;3.25;;;;;;;24.49;51.58;101107.69;5089805;28;20040;-58
2022/09/06 09:06:10;;;;;;;9.45;3.13;;;;;;;24.72;50.19;101112.28;5089957;28;20052;-58
2022/09/06 09:08:46;;;;;;;9.48;3.13;;;;;;;24.73;50.10;101113.13;5083819;28;20494;-58
2022/09/06 09:11:17;;;;;;;9.80;3.10;;;;;;;24.89;48.90;101112.38;5090389;28;20079;-58
2022/09/06 09:14:10;;;;;;;9.80;3.08;;;;;;;25.08;49.10;101111.09;5090442;28;20052;-58
2022/09/06 09:16:36;;;;;;;9.55;2.92;;;;;;;25.30;48.01;101105.03;5089979;28;20505;-58
2022/09/06 09:19:04;;;;;;;9.00;3.03;;;;;;;25.56;47.20;101103.59;5089032;28;20048;-58
2022/09/06 09:21:36;;;;;;;9.77;2.83;;;;;;;25.85;46.72;101095.38;5109232;28;20050;-58
2022/09/06 09:24:05;;;;;;;;;;;;;;;26.46;45.04;101103.63;5107516;28;20048;-58
2022/09/06 09:26:43;;;;;;;16.42;3.30;;;;;;;27.60;42.11;101109.31;5110463;28;20361;-58
2022/09/06 09:29:12;;;;;;;11.85;2.80;;;;;;;28.98;39.93;101101.16;5110440;28;20055;-55
2022/09/06 09:31:41;;;;;;;15.80;3.30;;;;;;;30.17;37.17;101093.88;5100963;28;20101;-58
2022/09/06 09:34:13;;;;;;;12.50;3.10;;;;;;;31.49;34.65;101099.84;5086105;28;20048;-58
2022/09/06 09:36:39;;;;;;;;;;;;;;;32.52;32.41;101101.59;5089479;28;20076;-57
2022/09/06 09:39:09;;;;;;;7.45;2.75;;;;;;;33.09;30.98;101096.16;5100575;28;20274;-57
2022/09/06 09:41:39;;;;;;;9.65;3.00;;;;;;;33.34;30.03;101088.69;5109013;28;20039;-58
2022/09/06 09:44:16;;;;;;;13.43;3.23;;;;;;;34.32;29.92;101091.38;5109374;28;20058;-58
2022/09/06 09:46:43;;;;;;;16.38;3.05;;;;;;;34.13;28.01;101085.13;5109384;28;20713;-58
2022/09/06 09:49:27;;;;;;;10.80;2.70;;;;;;;34.26;28.16;101084.34;5109070;28;20048;-57
2022/09/06 09:52:11;;;;;;;9.70;2.65;;;;;;;35.05;27.56;101082.41;5068490;28;20049;-58
2022/09/06 09:54:43;;;;;;;18.40;3.15;;;;;;;35.34;28.02;101084.75;5065434;28;20044;-58
2022/09/06 09:57:16;;;;;;;14.98;2.85;;;;;;;35.08;27.47;101073.53;5068545;28;20514;-57
2022/09/06 09:59:49;;;;;;;14.38;2.90;;;;;;;33.93;28.69;101070.66;5068120;28;20057;-58
2022/09/06 10:02:28;;;;;;;11.15;2.80;;;;;;;33.48;28.93;101073.88;5068155;28;20066;-57
2022/09/06 10:05:08;;;;;;;9.40;2.80;;;;;;;33.38;29.50;101070.47;5077914;28;20102;-57
2022/09/06 10:07:43;;;;;;;19.13;2.72;;;;;;;32.80;31.31;101058.69;5088686;28;20159;-57
2022/09/06 10:10:13;;;;;;;10.45;3.08;;;;;;;32.64;30.43;101054.53;5086041;28;20535;-57
2022/09/06 10:12:41;;;;;;;15.83;3.47;;;;;;;32.43;31.09;101054.75;5075091;28;20052;-57
2022/09/06 10:15:11;;;;;;;13.38;2.95;;;;;;;32.29;31.07;101062.06;5075395;28;20093;-57
2022/09/06 10:17:53;;;;;;;17.83;3.10;;;;;;;31.81;31.68;101062.00;5075572;28;20048;-57
2022/09/06 10:20:27;;;;;;;8.73;2.88;;;;;;;32.02;31.69;101068.94;5075517;28;20131;-57
2022/09/06 10:23:05;;;;;;;9.40;3.00;;;;;;;32.20;31.74;101072.03;5075353;28;20059;-57
2022/09/06 10:25:45;;;;;;;8.90;2.92;;;;;;;31.81;31.89;101078.47;5072110;28;20087;-57
2022/09/06 10:28:26;;;;;;;9.63;3.10;;;;;;;31.64;31.95;101084.38;5075840;28;20079;-57
2022/09/06 10:31:05;;;;;;;11.93;3.08;;;;;;;30.65;33.01;101085.25;5074523;28;20133;-57
2022/09/06 10:34:11;;;;;;;9.45;2.80;;;;;;;30.66;32.44;101078.69;5072231;28;20049;-57
2022/09/06 10:36:53;;;;;;;14.98;2.83;;;;;;;30.76;32.15;101067.66;5074288;28;20051;-57
2022/09/06 10:39:53;;;;;;;9.13;2.90;;;;;;;30.90;32.99;101060.47;5071328;28;20048;-57
2022/09/06 10:42:44;;;;;;;9.25;2.53;;;;;;;31.15;32.48;101064.19;5074232;28;20494;-57
2022/09/06 10:45:28;;;;;;;13.65;2.60;;;;;;;31.09;32.21;101060.66;5074372;28;20048;-57
2022/09/06 10:48:03;;;;;;;11.90;3.20;;;;;;;30.65;32.94;101064.16;5074585;28;20086;-58
2022/09/06 10:50:53;;;;;;;12.32;2.85;;;;;;;30.34;33.37;101058.81;5074089;28;20136;-57
2022/09/06 10:56:05;;;;;;;9.48;2.63;;;;;;;30.55;33.66;101065.03;5106818;27;20359;-57
2022/09/06 10:58:41;;;;;;;9.23;2.60;;;;;;;30.97;33.54;101061.00;5110269;28;20083;-58
2022/09/06 11:01:36;;;;;;;13.32;2.78;;;;;;;30.73;33.39;101051.81;5088519;28;20051;-57
2022/09/06 11:04:08;;;;;;;8.85;2.80;;;;;;;30.78;33.44;101063.56;5092251;28;20040;-58
2022/09/06 11:06:44;;;;;;;11.38;2.67;;;;;;;30.80;33.44;101064.09;5092891;28;20045;-57
2022/09/06 11:09:24;;;;;;;9.55;2.60;;;;;;;30.76;33.40;101057.53;5083025;28;20151;-56
2022/09/06 11:12:21;;;;;;;9.77;2.85;;;;;;;30.86;33.53;101053.91;5100235;28;20061;-57
2022/09/06 11:14:47;;;;;;;10.15;3.17;;;;;;;30.99;33.61;101039.63;5109332;28;20086;-57
2022/09/06 11:17:46;;;;;;;10.07;3.00;;;;;;;30.83;33.35;101043.53;5109888;28;20138;-57
2022/09/06 11:20:44;;;;;;;9.90;2.92;;;;;;;30.69;33.36;101040.59;5109756;28;20051;-57
2022/09/06 11:23:35;;;;;;;9.45;3.00;;;;;;;30.48;33.30;101052.75;5109523;28;20150;-58
2022/09/06 11:26:40;;;;;;;11.02;3.30;;;;;;;30.11;33.33;101043.81;5112782;28;20056;-58
2022/09/06 11:29:16;;;;;;;11.57;3.22;;;;;;;30.55;34.10;101051.34;5129928;27;20408;-57
2022/09/06 11:32:00;;;;;;;10.90;2.92;;;;;;;30.56;33.26;101053.00;5130026;27;20051;-58
2022/09/06 11:34:53;;;;;;;12.43;2.95;;;;;;;30.74;33.44;101053.44;5127886;28;20043;-58
2022/09/06 11:37:27;;;;;;;9.02;2.75;;;;;;;31.15;33.23;101058.69;5129483;27;20040;-58
2022/09/06 11:40:16;;;;;;;12.40;3.05;;;;;;;31.23;32.98;101054.53;5126920;27;20047;-57
2022/09/06 11:45:46;;;;;;;9.05;2.97;;;;;;;31.14;33.43;101052.38;5110001;27;20384;-57
2022/09/06 11:48:33;;;;;;;11.68;3.33;;;;;;;31.39;33.78;101056.84;5110064;28;20032;-57
2022/09/06 11:51:06;;;;;;;17.88;3.67;;;;;;;31.41;33.04;101051.09;5110213;28;20056;-57
2022/09/06 11:53:54;;;;;;;13.10;3.10;;;;;;;31.08;33.57;101050.78;5109751;28;20074;-56